createdAt,value
2023-05-20T00:01:52.709Z,101719.72
2023-05-20T00:04:47.854Z,101711.75
2023-05-20T00:07:19.177Z,101729.06
2023-05-20T00:09:49.533Z,101722.09
2023-05-20T00:12:27.030Z,101726.94
2023-05-20T01:17:27.847Z,101721.53
2023-05-20T01:24:35.449Z,101720.66
2023-05-20T02:09:25.905Z,101743.84
2023-05-20T02:21:28.582Z,101747.09
2023-05-20T02:24:35.491Z,101753.66
2023-05-20T02:27:00.085Z,101756.59
2023-05-20T02:29:28.974Z,101743.53
2023-05-20T02:31:57.555Z,101749.25
2023-05-20T02:34:32.708Z,101748.00
2023-05-20T02:37:29.868Z,101744.06
2023-05-20T02:42:57.477Z,101744.78
2023-05-20T02:45:31.493Z,101745.03
2023-05-20T02:54:30.213Z,101738.91
2023-05-20T03:00:06.235Z,101742.19
2023-05-20T03:05:28.968Z,101754.41
2023-05-20T03:08:38.602Z,101756.06
2023-05-20T03:11:07.988Z,101758.69
2023-05-20T03:13:37.122Z,101758.84
2023-05-20T03:16:30.192Z,101763.38
2023-05-20T03:20:01.847Z,101765.97
2023-05-20T03:22:01.860Z,101770.19
2023-05-20T03:27:00.065Z,101777.97
2023-05-20T03:29:32.240Z,101768.97
2023-05-20T03:32:06.355Z,101773.81
2023-05-20T03:35:30.027Z,101785.69
2023-05-20T03:43:32.076Z,101796.91
2023-05-20T03:55:02.503Z,101800.00
2023-05-20T03:57:33.151Z,101800.00
2023-05-20T04:00:03.129Z,101800.00
2023-05-20T04:02:32.698Z,101804.69
2023-05-20T04:05:02.453Z,101798.72
2023-05-20T04:07:33.623Z,101809.59
2023-05-20T04:10:01.948Z,101810.69
2023-05-20T04:15:12.271Z,101819.28
2023-05-20T04:18:04.264Z,101833.94
2023-05-20T04:20:33.154Z,101831.78
2023-05-20T04:23:04.452Z,101834.84
2023-05-20T04:25:32.465Z,101842.69
2023-05-20T04:28:04.081Z,101843.00
2023-05-20T04:33:05.953Z,101850.19
2023-05-20T04:35:36.116Z,101861.81
2023-05-20T04:42:05.729Z,101858.56
2023-05-20T04:44:37.109Z,101861.53
2023-05-20T04:47:05.560Z,101865.16
2023-05-20T04:49:36.092Z,101868.97
2023-05-20T04:52:05.651Z,101873.44
2023-05-20T04:57:47.524Z,101871.38
2023-05-20T05:00:26.630Z,101871.66
2023-05-20T05:03:05.057Z,101871.91
2023-05-20T05:06:03.860Z,101873.53
2023-05-20T05:08:35.082Z,101874.31
2023-05-20T05:11:07.746Z,101877.66
2023-05-20T05:13:42.091Z,101885.47
2023-05-20T05:16:10.470Z,101884.31
2023-05-20T05:30:38.387Z,101883.97
2023-05-20T05:33:07.273Z,101888.81
2023-05-20T05:35:46.298Z,101888.91
2023-05-20T05:38:15.399Z,101889.75
2023-05-20T05:44:05.802Z,101901.31
2023-05-20T05:51:08.082Z,101895.28
2023-05-20T05:57:06.702Z,101892.06
2023-05-20T06:00:06.014Z,101890.25
2023-05-20T06:03:06.459Z,101881.81
2023-05-20T06:06:06.400Z,101886.78
2023-05-20T06:09:08.410Z,101884.28
2023-05-20T06:12:07.458Z,101882.69
2023-05-20T06:14:38.528Z,101882.00
2023-05-20T06:17:08.175Z,101875.91
2023-05-20T06:20:06.820Z,101875.91
2023-05-20T06:22:38.323Z,101877.97
2023-05-20T06:25:08.681Z,101884.28
2023-05-20T06:34:38.927Z,101891.88
2023-05-20T06:37:08.650Z,101888.50
2023-05-20T06:39:37.134Z,101883.19
2023-05-20T06:42:09.122Z,101885.94
2023-05-20T06:47:12.665Z,101875.63
2023-05-20T06:50:08.687Z,101868.50
2023-05-20T06:52:42.274Z,101864.38
2023-05-20T06:55:13.710Z,101860.28
2023-05-20T06:58:12.835Z,101856.72
2023-05-20T07:03:12.568Z,101859.56
2023-05-20T07:06:09.740Z,101854.41
2023-05-20T07:15:08.840Z,101869.81
2023-05-20T07:18:09.367Z,101865.44
2023-05-20T07:20:40.851Z,101866.56
2023-05-20T07:23:09.376Z,101866.72
2023-05-20T07:26:09.871Z,101870.06
2023-05-20T07:31:13.469Z,101866.47
2023-05-20T07:34:12.371Z,101866.56
2023-05-20T07:36:40.890Z,101859.66
2023-05-20T07:39:14.378Z,101862.16
2023-05-20T07:42:12.023Z,101858.63
2023-05-20T07:45:12.317Z,101863.44
2023-05-20T07:51:10.025Z,101866.22
2023-05-20T07:56:12.594Z,101864.09
2023-05-20T07:59:11.965Z,101868.50
2023-05-20T08:02:10.827Z,101872.34
2023-05-20T08:04:42.047Z,101861.97
2023-05-20T08:07:13.573Z,101866.41
2023-05-20T08:09:42.073Z,101861.88
2023-05-20T08:12:10.366Z,101868.97
2023-05-20T08:15:13.076Z,101865.19
2023-05-20T08:17:41.757Z,101869.78
2023-05-20T08:20:13.586Z,101860.13
2023-05-20T08:22:42.155Z,101862.09
2023-05-20T08:25:14.036Z,101856.00
2023-05-20T08:27:42.827Z,101867.63
2023-05-20T08:30:12.394Z,101872.84
2023-05-20T08:32:43.765Z,101870.09
2023-05-20T08:35:12.139Z,101874.59
2023-05-20T08:37:43.652Z,101879.84
2023-05-20T08:40:13.850Z,101882.50
2023-05-20T08:42:45.730Z,101878.09
2023-05-20T08:45:17.209Z,101886.19
2023-05-20T08:47:47.033Z,101882.94
2023-05-20T08:50:16.171Z,101881.38
2023-05-20T08:52:48.259Z,101882.31
2023-05-20T08:55:42.188Z,101877.78
2023-05-20T08:58:16.406Z,101877.97
2023-05-20T09:00:44.742Z,101880.78
2023-05-20T09:03:13.348Z,101882.75
2023-05-20T09:05:44.447Z,101882.66
2023-05-20T09:08:13.422Z,101873.75
2023-05-20T09:10:44.938Z,101876.41
2023-05-20T09:13:13.456Z,101882.75
2023-05-20T09:15:44.761Z,101871.44
2023-05-20T09:18:14.253Z,101870.81
2023-05-20T09:20:47.596Z,101873.56
2023-05-20T09:23:15.955Z,101873.63
2023-05-20T09:25:44.287Z,101882.56
2023-05-20T09:28:12.876Z,101888.78
2023-05-20T09:30:46.015Z,101884.38
2023-05-20T09:33:14.820Z,101891.44
2023-05-20T09:35:43.572Z,101888.88
2023-05-20T09:38:16.894Z,101881.72
2023-05-20T09:40:47.484Z,101878.97
2023-05-20T09:43:16.291Z,101879.72
2023-05-20T09:45:44.896Z,101874.41
2023-05-20T09:48:16.226Z,101872.78
2023-05-20T09:50:44.761Z,101872.25
2023-05-20T09:53:16.962Z,101877.41
2023-05-20T09:55:46.431Z,101868.47
2023-05-20T09:58:16.446Z,101869.25
2023-05-20T10:00:44.819Z,101861.25
2023-05-20T10:03:14.881Z,101860.41
2023-05-20T10:05:58.004Z,101863.16
2023-05-20T10:08:57.015Z,101871.06
2023-05-20T10:12:02.279Z,101871.06
2023-05-20T10:14:50.464Z,101867.38
2023-05-20T10:17:44.779Z,101863.75
2023-05-20T10:20:16.980Z,101861.25
2023-05-20T10:22:46.399Z,101859.63
2023-05-20T10:28:45.867Z,101867.28
2023-05-20T10:31:26.606Z,101870.34
2023-05-20T10:33:56.940Z,101862.69
2023-05-20T10:36:35.472Z,101864.50
2023-05-20T10:39:46.930Z,101867.06
2023-05-20T10:42:18.521Z,101869.81
2023-05-20T10:44:48.480Z,101872.56
2023-05-20T10:47:25.331Z,101875.31
2023-05-20T10:49:54.044Z,101874.34
2023-05-20T10:52:25.736Z,101880.66
2023-05-20T10:55:24.255Z,101874.34
2023-05-20T10:58:06.555Z,101874.53
2023-05-20T11:01:16.416Z,101874.44
2023-05-20T11:03:51.618Z,101878.91
2023-05-20T11:06:20.189Z,101873.50
2023-05-20T11:09:17.582Z,101884.06
2023-05-20T11:11:49.113Z,101886.06
2023-05-20T11:14:19.101Z,101887.84
2023-05-20T11:16:49.444Z,101879.84
2023-05-20T11:19:17.997Z,101885.00
2023-05-20T11:22:22.001Z,101885.72
2023-05-20T11:28:17.302Z,101884.88
2023-05-20T11:31:16.239Z,101882.97
2023-05-20T11:33:50.254Z,101894.38
2023-05-20T11:36:27.412Z,101888.91
2023-05-20T11:39:02.035Z,101888.75
2023-05-20T11:44:47.305Z,101893.84
2023-05-20T11:47:17.737Z,101887.72
2023-05-20T11:50:18.126Z,101883.94
2023-05-20T11:53:20.240Z,101892.56
2023-05-20T11:55:56.136Z,101896.06
2023-05-20T11:58:27.167Z,101898.47
2023-05-20T12:01:05.188Z,101900.13
2023-05-20T12:04:18.730Z,101906.22
2023-05-20T12:06:50.199Z,101905.38
2023-05-20T12:09:18.617Z,101915.00
2023-05-20T12:15:17.815Z,101911.13
2023-05-20T12:17:51.630Z,101911.91
2023-05-20T12:20:24.490Z,101906.56
2023-05-20T12:23:18.051Z,101906.31
2023-05-20T12:25:48.096Z,101909.78
2023-05-20T12:28:19.828Z,101895.47
2023-05-20T12:30:48.067Z,101895.47
2023-05-20T12:33:17.282Z,101898.94
2023-05-20T12:35:48.743Z,101896.09
2023-05-20T12:38:49.272Z,101903.16
2023-05-20T12:41:20.568Z,101908.47
2023-05-20T12:49:21.842Z,101911.31
2023-05-20T12:51:50.472Z,101919.81
2023-05-20T12:54:19.522Z,101923.19
2023-05-20T12:56:49.244Z,101913.47
2023-05-20T12:59:20.582Z,101921.56
2023-05-20T13:01:49.749Z,101921.72
2023-05-20T13:04:21.174Z,101927.81
2023-05-20T13:06:49.567Z,101922.50
2023-05-20T13:09:20.782Z,101921.63
2023-05-20T13:11:49.045Z,101921.63
2023-05-20T13:14:20.533Z,101928.63
2023-05-20T13:16:50.510Z,101933.84
2023-05-20T13:19:18.801Z,101930.13
2023-05-20T13:21:53.105Z,101936.25
2023-05-20T13:24:21.839Z,101938.09
2023-05-20T13:26:50.107Z,101937.19
2023-05-20T13:29:22.378Z,101933.50
2023-05-20T13:32:28.577Z,101933.50
2023-05-20T13:34:49.497Z,101936.94
2023-05-20T13:37:20.621Z,101942.28
2023-05-20T13:39:50.557Z,101937.03
2023-05-20T13:42:23.413Z,101941.50
2023-05-20T13:50:20.950Z,101958.09
2023-05-20T13:52:52.559Z,101958.09
2023-05-20T13:55:21.808Z,101967.81
2023-05-20T13:57:51.092Z,101969.81
2023-05-20T14:02:50.307Z,101968.66
2023-05-20T14:05:19.722Z,101967.69
2023-05-20T14:07:48.175Z,101974.78
2023-05-20T14:10:19.688Z,101973.22
2023-05-20T14:12:49.082Z,101978.03
2023-05-20T14:15:17.464Z,101972.16
2023-05-20T14:17:52.447Z,101994.66
2023-05-20T14:20:27.220Z,101988.25
2023-05-20T14:23:18.443Z,101989.38
2023-05-20T14:25:50.673Z,101993.66
2023-05-20T14:28:21.300Z,101985.94
2023-05-20T14:30:49.599Z,101992.50
2023-05-20T14:33:20.329Z,101997.94
2023-05-20T14:35:52.102Z,101997.13
2023-05-20T14:38:23.565Z,101993.69
2023-05-20T14:40:52.106Z,101999.09
2023-05-20T14:43:22.339Z,101997.28
2023-05-20T14:45:50.645Z,102002.53
2023-05-20T14:48:21.668Z,102002.44
2023-05-20T14:50:53.039Z,101998.84
2023-05-20T14:53:21.200Z,102003.16
2023-05-20T14:55:49.616Z,101999.41
2023-05-20T14:58:21.028Z,102011.44
2023-05-20T15:00:49.129Z,102018.66
2023-05-20T15:03:20.148Z,102016.00
2023-05-20T15:05:51.701Z,102021.25
2023-05-20T15:08:20.271Z,102022.09
2023-05-20T15:10:51.613Z,102023.59
2023-05-20T15:13:22.239Z,102023.44
2023-05-20T15:15:52.901Z,102022.31
2023-05-20T15:18:21.552Z,102024.91
2023-05-20T15:20:53.457Z,102027.66
2023-05-20T15:23:22.416Z,102023.97
2023-05-20T15:25:53.672Z,102025.63
2023-05-20T15:28:22.201Z,102016.69
2023-05-20T15:30:55.490Z,102017.38
2023-05-20T15:33:24.232Z,102016.44
2023-05-20T15:35:52.757Z,102024.78
2023-05-20T15:38:24.933Z,102020.00
2023-05-20T15:40:53.302Z,102018.63
2023-05-20T15:43:23.227Z,102028.75
2023-05-20T15:45:55.613Z,102034.75
2023-05-20T15:48:27.501Z,102044.06
2023-05-20T15:59:51.909Z,102037.88
2023-05-20T16:02:51.845Z,102041.41
2023-05-20T16:05:52.645Z,102054.19
2023-05-20T16:08:59.461Z,102047.47
2023-05-20T16:11:30.000Z,102046.94
2023-05-20T16:14:01.339Z,102050.00
2023-05-20T16:16:38.224Z,102047.63
2023-05-20T16:21:00.843Z,102045.38
2023-05-20T16:39:54.840Z,102050.56
2023-05-20T16:53:10.269Z,102051.81
2023-05-20T16:53:53.748Z,102049.00
2023-05-20T16:59:17.755Z,102037.66
2023-05-20T17:01:54.720Z,102044.47
2023-05-20T17:04:23.493Z,102041.63
2023-05-20T17:06:57.729Z,102045.09
2023-05-20T17:09:26.102Z,102043.81
2023-05-20T17:11:55.436Z,102040.50
2023-05-20T17:14:34.667Z,102034.81
2023-05-20T17:17:02.995Z,102027.78
2023-05-20T17:19:59.076Z,102036.59
2023-05-20T17:22:30.430Z,102032.88
2023-05-20T17:24:59.533Z,102034.47
2023-05-20T17:28:00.688Z,102043.66
2023-05-20T17:33:09.713Z,102038.63
2023-05-20T17:35:43.990Z,102044.22
2023-05-20T17:41:29.577Z,102042.44
2023-05-20T17:43:58.031Z,102040.69
2023-05-20T17:46:26.629Z,102038.94
2023-05-20T17:48:58.221Z,102040.75
2023-05-20T17:54:01.917Z,102038.22
2023-05-20T17:56:30.482Z,102033.38
2023-05-20T18:01:30.424Z,102030.88
2023-05-20T18:04:05.300Z,102036.50
2023-05-20T18:06:38.501Z,102035.88
2023-05-20T18:09:07.257Z,102028.91
2023-05-20T18:12:03.592Z,102026.69
2023-05-20T18:19:58.987Z,102040.66
2023-05-20T18:22:30.697Z,102041.34
2023-05-20T18:25:01.589Z,102037.53
2023-05-20T18:27:30.247Z,102041.19
2023-05-20T18:30:01.611Z,102033.34
2023-05-20T18:33:06.232Z,102029.81
2023-05-20T18:39:36.248Z,102029.56
2023-05-20T18:42:11.167Z,102026.63
2023-05-20T18:45:14.879Z,102023.59
2023-05-20T19:21:59.281Z,102031.91
2023-05-20T20:30:08.511Z,101981.09
2023-05-20T20:33:12.713Z,101981.41
2023-05-20T20:36:07.809Z,101981.94
2023-05-20T20:44:24.487Z,101985.06
2023-05-20T20:48:10.487Z,101974.19
2023-05-20T20:56:10.879Z,101997.69
2023-05-20T20:59:10.155Z,101985.69
2023-05-20T21:04:38.079Z,101970.25
2023-05-20T21:07:09.626Z,101968.19
2023-05-20T21:09:38.604Z,101967.09
2023-05-20T21:12:10.480Z,101970.34
2023-05-20T21:14:39.091Z,101966.66
2023-05-20T21:17:12.179Z,101964.72
2023-05-20T21:22:40.229Z,101955.03
2023-05-20T21:25:12.203Z,101962.69
2023-05-20T21:28:08.876Z,101959.81
2023-05-20T21:30:40.038Z,101954.22
2023-05-20T21:33:10.102Z,101964.13
2023-05-20T21:35:44.673Z,101965.19
2023-05-20T21:38:15.586Z,101957.81
2023-05-20T21:44:17.388Z,101926.25
2023-05-20T21:46:46.015Z,101933.31
2023-05-20T21:49:14.632Z,101942.03
2023-05-20T21:52:13.109Z,101941.81
2023-05-20T21:55:12.037Z,101940.13
2023-05-20T21:57:49.336Z,101934.03
2023-05-20T22:00:19.871Z,101937.00
2023-05-20T22:03:14.050Z,101936.34
2023-05-20T22:06:10.965Z,101918.63
2023-05-20T22:11:16.607Z,101925.88
2023-05-20T22:17:13.239Z,101927.19
2023-05-20T22:19:44.978Z,101924.47
2023-05-20T22:22:13.852Z,101927.03
2023-05-20T22:28:11.990Z,101921.22
2023-05-20T22:33:15.118Z,101909.75
2023-05-20T22:42:13.066Z,101912.56
2023-05-20T22:50:17.345Z,101901.56
2023-05-20T22:52:45.848Z,101904.41
2023-05-20T22:55:24.128Z,101889.34
2023-05-20T22:58:18.488Z,101892.47
2023-05-20T23:01:14.117Z,101890.88
2023-05-20T23:03:48.725Z,101879.25
2023-05-20T23:06:17.892Z,101883.81
2023-05-20T23:15:00.938Z,101876.97
2023-05-20T23:21:14.922Z,101862.03
2023-05-20T23:29:43.645Z,101860.75
2023-05-20T23:32:18.176Z,101864.56
2023-05-20T23:35:19.424Z,101865.28
2023-05-20T23:41:16.937Z,101859.81
2023-05-20T23:44:17.989Z,101857.78
2023-05-20T23:50:18.412Z,101858.28
2023-05-20T23:53:18.731Z,101855.75
2023-05-20T23:56:21.227Z,101858.97
